sensor_id;sensor_type;location;lat;lon;timestamp;pressure;altitude;pressure_sealevel;temperature;humidity
30614;BME280;17381;51.690;5.270;2023-02-04T00:00:53;103239.88;;;7.63;89.31
30614;BME280;17381;51.690;5.270;2023-02-04T00:03:25;103186.88;;;7.36;88.80
30614;BME280;17381;51.690;5.270;2023-02-04T00:06:01;103250.44;;;7.67;88.79
30614;BME280;17381;51.690;5.270;2023-02-04T00:08:32;103248.63;;;7.64;88.93
30614;BME280;17381;51.690;5.270;2023-02-04T00:11:19;103250.41;;;7.65;88.97
30614;BME280;17381;51.690;5.270;2023-02-04T00:14:03;103247.72;;;7.62;89.00
30614;BME280;17381;51.690;5.270;2023-02-04T00:16:40;103220.28;;;7.46;89.05
30614;BME280;17381;51.690;5.270;2023-02-04T00:19:23;103256.53;;;7.65;89.05
30614;BME280;17381;51.690;5.270;2023-02-04T00:22:04;103256.41;;;7.61;88.50
30614;BME280;17381;51.690;5.270;2023-02-04T00:24:48;103257.28;;;7.61;88.64
30614;BME280;17381;51.690;5.270;2023-02-04T00:27:19;103261.59;;;7.59;88.79
30614;BME280;17381;51.690;5.270;2023-02-04T00:29:55;103272.16;;;7.62;88.42
30614;BME280;17381;51.690;5.270;2023-02-04T00:32:29;103267.59;;;7.55;88.74
30614;BME280;17381;51.690;5.270;2023-02-04T00:35:01;103273.72;;;7.56;88.91
30614;BME280;17381;51.690;5.270;2023-02-04T00:37:45;103275.56;;;7.60;88.85
30614;BME280;17381;51.690;5.270;2023-02-04T00:40:14;103265.84;;;7.54;89.06
30614;BME280;17381;51.690;5.270;2023-02-04T00:42:51;103278.22;;;7.61;88.83
30614;BME280;17381;51.690;5.270;2023-02-04T00:45:23;103265.84;;;7.56;88.90
30614;BME280;17381;51.690;5.270;2023-02-04T00:48:01;103279.00;;;7.57;89.01
30614;BME280;17381;51.690;5.270;2023-02-04T00:50:35;103274.63;;;7.58;89.30
30614;BME280;17381;51.690;5.270;2023-02-04T00:53:11;103272.88;;;7.57;89.06
30614;BME280;17381;51.690;5.270;2023-02-04T00:55:43;103265.75;;;7.51;89.00
30614;BME280;17381;51.690;5.270;2023-02-04T00:58:16;103270.25;;;7.57;89.23
30614;BME280;17381;51.690;5.270;2023-02-04T01:00:47;103271.91;;;7.53;89.28
30614;BME280;17381;51.690;5.270;2023-02-04T01:06:10;103283.38;;;7.58;89.76
30614;BME280;17381;51.690;5.270;2023-02-04T01:08:48;103216.88;;;7.17;89.13
30614;BME280;17381;51.690;5.270;2023-02-04T01:11:38;103282.41;;;7.55;89.07
30614;BME280;17381;51.690;5.270;2023-02-04T01:14:05;103290.22;;;7.53;89.32
30614;BME280;17381;51.690;5.270;2023-02-04T01:16:42;103298.94;;;7.52;89.18
30614;BME280;17381;51.690;5.270;2023-02-04T01:19:22;103297.97;;;7.49;89.42
30614;BME280;17381;51.690;5.270;2023-02-04T01:21:57;103303.22;;;7.50;89.25
30614;BME280;17381;51.690;5.270;2023-02-04T01:24:28;103294.38;;;7.45;89.18
30614;BME280;17381;51.690;5.270;2023-02-04T01:27:28;103306.50;;;7.41;89.15
30614;BME280;17381;51.690;5.270;2023-02-04T01:29:59;103308.13;;;7.38;89.04
30614;BME280;17381;51.690;5.270;2023-02-04T01:32:38;103303.59;;;7.31;89.58
30614;BME280;17381;51.690;5.270;2023-02-04T01:35:37;103305.94;;;7.21;89.09
30614;BME280;17381;51.690;5.270;2023-02-04T01:38:17;103308.28;;;7.12;89.31
30614;BME280;17381;51.690;5.270;2023-02-04T01:40:58;103295.69;;;6.99;89.53
30614;BME280;17381;51.690;5.270;2023-02-04T01:43:41;103310.56;;;7.02;89.35
30614;BME280;17381;51.690;5.270;2023-02-04T01:46:29;103308.66;;;6.94;89.57
30614;BME280;17381;51.690;5.270;2023-02-04T01:48:58;103314.69;;;6.92;89.44
30614;BME280;17381;51.690;5.270;2023-02-04T01:51:26;103316.22;;;6.85;89.75
30614;BME280;17381;51.690;5.270;2023-02-04T01:54:02;103332.78;;;6.86;89.77
30614;BME280;17381;51.690;5.270;2023-02-04T01:56:44;103337.06;;;6.84;89.70
30614;BME280;17381;51.690;5.270;2023-02-04T01:59:25;103320.09;;;6.69;89.95
30614;BME280;17381;51.690;5.270;2023-02-04T02:02:42;103347.53;;;6.84;89.75
30614;BME280;17381;51.690;5.270;2023-02-04T02:08:34;103344.09;;;6.85;90.53
30614;BME280;17381;51.690;5.270;2023-02-04T02:11:05;103344.22;;;6.89;90.97
30614;BME280;17381;51.690;5.270;2023-02-04T02:13:41;103338.16;;;6.90;90.58
30614;BME280;17381;51.690;5.270;2023-02-04T02:16:17;103339.03;;;6.91;90.65
30614;BME280;17381;51.690;5.270;2023-02-04T02:18:53;103326.59;;;6.84;90.36
30614;BME280;17381;51.690;5.270;2023-02-04T02:21:36;103336.31;;;6.88;90.26
30614;BME280;17381;51.690;5.270;2023-02-04T02:24:36;103345.81;;;6.84;90.33
30614;BME280;17381;51.690;5.270;2023-02-04T02:27:13;103341.19;;;6.75;90.36
30614;BME280;17381;51.690;5.270;2023-02-04T02:29:55;103340.22;;;6.72;90.33
30614;BME280;17381;51.690;5.270;2023-02-04T02:32:44;103335.63;;;6.65;90.49
30614;BME280;17381;51.690;5.270;2023-02-04T02:35:17;103281.44;;;6.30;90.35
30614;BME280;17381;51.690;5.270;2023-02-04T02:37:55;103343.53;;;6.66;90.53
30614;BME280;17381;51.690;5.270;2023-02-04T02:40:37;103346.88;;;6.62;90.80
30614;BME280;17381;51.690;5.270;2023-02-04T02:43:08;103349.63;;;6.67;91.00
30614;BME280;17381;51.690;5.270;2023-02-04T02:45:42;103346.06;;;6.65;90.80
30614;BME280;17381;51.690;5.270;2023-02-04T02:48:24;103352.19;;;6.65;90.79
30614;BME280;17381;51.690;5.270;2023-02-04T02:50:59;103345.19;;;6.64;90.79
30614;BME280;17381;51.690;5.270;2023-02-04T02:54:07;103349.41;;;6.61;91.33
30614;BME280;17381;51.690;5.270;2023-02-04T02:56:48;103358.28;;;6.66;91.33
30614;BME280;17381;51.690;5.270;2023-02-04T02:59:18;103354.84;;;6.67;90.85
30614;BME280;17381;51.690;5.270;2023-02-04T03:02:00;103341.56;;;6.59;91.24
30614;BME280;17381;51.690;5.270;2023-02-04T03:04:53;103362.63;;;6.65;91.26
30614;BME280;17381;51.690;5.270;2023-02-04T03:07:36;103353.78;;;6.60;90.84
30614;BME280;17381;51.690;5.270;2023-02-04T03:10:18;103352.00;;;6.59;90.87
30614;BME280;17381;51.690;5.270;2023-02-04T03:12:50;103350.75;;;6.48;91.18
30614;BME280;17381;51.690;5.270;2023-02-04T03:15:34;103354.16;;;6.45;90.65
30614;BME280;17381;51.690;5.270;2023-02-04T03:18:07;103367.28;;;6.47;91.10
30614;BME280;17381;51.690;5.270;2023-02-04T03:20:55;103312.97;;;6.09;90.65
30614;BME280;17381;51.690;5.270;2023-02-04T03:23:37;103373.19;;;6.41;90.58
30614;BME280;17381;51.690;5.270;2023-02-04T03:26:21;103380.09;;;6.39;90.64
30614;BME280;17381;51.690;5.270;2023-02-04T03:29:22;103379.16;;;6.37;90.56
30614;BME280;17381;51.690;5.270;2023-02-04T03:32:00;103376.44;;;6.34;90.42
30614;BME280;17381;51.690;5.270;2023-02-04T03:34:26;103379.81;;;6.30;90.34
30614;BME280;17381;51.690;5.270;2023-02-04T03:37:02;103379.81;;;6.30;90.23
30614;BME280;17381;51.690;5.270;2023-02-04T03:39:31;103387.50;;;6.25;90.03
30614;BME280;17381;51.690;5.270;2023-02-04T03:42:16;103386.44;;;6.20;89.88
30614;BME280;17381;51.690;5.270;2023-02-04T03:45:07;103378.28;;;6.11;89.89
30614;BME280;17381;51.690;5.270;2023-02-04T03:47:37;103391.31;;;6.09;89.73
30614;BME280;17381;51.690;5.270;2023-02-04T03:50:06;103386.88;;;6.07;89.72
30614;BME280;17381;51.690;5.270;2023-02-04T03:52:32;103386.53;;;5.98;89.40
30614;BME280;17381;51.690;5.270;2023-02-04T03:55:22;103386.31;;;5.92;89.97
30614;BME280;17381;51.690;5.270;2023-02-04T03:57:56;103332.53;;;5.47;89.65
30614;BME280;17381;51.690;5.270;2023-02-04T04:00:35;103382.22;;;5.74;89.36
30614;BME280;17381;51.690;5.270;2023-02-04T04:03:14;103385.44;;;5.67;89.28
30614;BME280;17381;51.690;5.270;2023-02-04T04:05:49;103388.78;;;5.63;89.32
30614;BME280;17381;51.690;5.270;2023-02-04T04:08:17;103385.66;;;5.49;89.38
30614;BME280;17381;51.690;5.270;2023-02-04T04:10:50;103341.91;;;5.18;89.00
30614;BME280;17381;51.690;5.270;2023-02-04T04:13:22;103388.75;;;5.39;89.30
30614;BME280;17381;51.690;5.270;2023-02-04T04:15:51;103399.84;;;5.33;89.11
30614;BME280;17381;51.690;5.270;2023-02-04T04:18:17;103390.63;;;5.19;89.56
30614;BME280;17381;51.690;5.270;2023-02-04T04:21:03;103402.06;;;5.22;89.42
30614;BME280;17381;51.690;5.270;2023-02-04T04:23:40;103388.63;;;5.12;89.58
30614;BME280;17381;51.690;5.270;2023-02-04T04:26:11;103400.91;;;5.16;89.46
30614;BME280;17381;51.690;5.270;2023-02-04T04:28:48;103399.09;;;5.13;89.94
30614;BME280;17381;51.690;5.270;2023-02-04T04:31:19;103399.03;;;5.12;89.83
30614;BME280;17381;51.690;5.270;2023-02-04T04:33:48;103391.69;;;5.01;89.38
30614;BME280;17381;51.690;5.270;2023-02-04T04:36:22;103411.97;;;5.09;90.01
30614;BME280;17381;51.690;5.270;2023-02-04T04:38:51;103406.78;;;5.10;90.57
30614;BME280;17381;51.690;5.270;2023-02-04T04:41:26;103343.13;;;4.81;90.50
30614;BME280;17381;51.690;5.270;2023-02-04T04:43:55;103405.06;;;5.11;90.75
30614;BME280;17381;51.690;5.270;2023-02-04T04:46:26;103402.47;;;5.11;91.55
30614;BME280;17381;51.690;5.270;2023-02-04T04:48:57;103402.06;;;5.22;91.70
30614;BME280;17381;51.690;5.270;2023-02-04T04:51:26;103406.72;;;5.31;91.81
30614;BME280;17381;51.690;5.270;2023-02-04T04:54:02;103413.84;;;5.35;91.56
30614;BME280;17381;51.690;5.270;2023-02-04T04:56:38;103374.53;;;5.07;91.23
30614;BME280;17381;51.690;5.270;2023-02-04T04:59:18;103429.38;;;5.32;91.10
30614;BME280;17381;51.690;5.270;2023-02-04T05:01:48;103435.34;;;5.30;90.90
30614;BME280;17381;51.690;5.270;2023-02-04T05:04:23;103333.19;;;4.71;91.10
30614;BME280;17381;51.690;5.270;2023-02-04T05:06:51;103440.56;;;5.30;90.73
30614;BME280;17381;51.690;5.270;2023-02-04T05:09:43;103432.78;;;5.31;90.98
30614;BME280;17381;51.690;5.270;2023-02-04T05:12:21;103443.88;;;5.25;91.08
30614;BME280;17381;51.690;5.270;2023-02-04T05:14:59;103434.44;;;5.29;91.43
30614;BME280;17381;51.690;5.270;2023-02-04T05:17:28;103435.41;;;5.31;91.74
30614;BME280;17381;51.690;5.270;2023-02-04T05:20:21;103385.53;;;4.99;91.64
30614;BME280;17381;51.690;5.270;2023-02-04T05:22:48;103442.41;;;5.32;91.71
30614;BME280;17381;51.690;5.270;2023-02-04T05:25:44;103432.91;;;5.34;91.78
30614;BME280;17381;51.690;5.270;2023-02-04T05:28:16;103432.78;;;5.31;91.52
30614;BME280;17381;51.690;5.270;2023-02-04T05:30:56;103438.25;;;5.37;92.13
30614;BME280;17381;51.690;5.270;2023-02-04T05:33:39;103443.59;;;5.40;92.26
30614;BME280;17381;51.690;5.270;2023-02-04T05:36:08;103430.53;;;5.40;92.10
30614;BME280;17381;51.690;5.270;2023-02-04T05:38:55;103434.31;;;5.49;92.88
30614;BME280;17381;51.690;5.270;2023-02-04T05:41:22;103439.59;;;5.50;92.66
30614;BME280;17381;51.690;5.270;2023-02-04T05:43:56;103438.00;;;5.54;93.30
30614;BME280;17381;51.690;5.270;2023-02-04T05:46:28;103436.06;;;5.48;93.13
30614;BME280;17381;51.690;5.270;2023-02-04T05:49:03;103442.16;;;5.49;93.48
30614;BME280;17381;51.690;5.270;2023-02-04T05:51:44;103442.25;;;5.52;93.44
30614;BME280;17381;51.690;5.270;2023-02-04T05:54:13;103392.41;;;5.20;93.32
30614;BME280;17381;51.690;5.270;2023-02-04T05:56:52;103451.03;;;5.54;93.75
30614;BME280;17381;51.690;5.270;2023-02-04T05:59:31;103445.91;;;5.57;94.58
30614;BME280;17381;51.690;5.270;2023-02-04T06:02:00;103452.94;;;5.58;94.56
30614;BME280;17381;51.690;5.270;2023-02-04T06:04:40;103458.38;;;5.64;94.59
30614;BME280;17381;51.690;5.270;2023-02-04T06:07:18;103433.16;;;5.64;94.83
30614;BME280;17381;51.690;5.270;2023-02-04T06:09:50;103402.91;;;5.45;94.77
30614;BME280;17381;51.690;5.270;2023-02-04T06:12:25;103464.44;;;5.87;94.44
30614;BME280;17381;51.690;5.270;2023-02-04T06:15:00;103468.16;;;5.94;94.63
30614;BME280;17381;51.690;5.270;2023-02-04T06:17:44;103465.72;;;5.98;94.19
30614;BME280;17381;51.690;5.270;2023-02-04T06:20:25;103470.28;;;6.04;94.42
30614;BME280;17381;51.690;5.270;2023-02-04T06:23:12;103477.47;;;6.09;94.49
30614;BME280;17381;51.690;5.270;2023-02-04T06:25:42;103478.44;;;6.13;94.29
30614;BME280;17381;51.690;5.270;2023-02-04T06:28:09;103479.28;;;6.12;94.21
30614;BME280;17381;51.690;5.270;2023-02-04T06:30:35;103474.84;;;6.09;93.90
30614;BME280;17381;51.690;5.270;2023-02-04T06:33:04;103498.84;;;6.23;93.80
30614;BME280;17381;51.690;5.270;2023-02-04T06:35:36;103502.31;;;6.24;93.96
30614;BME280;17381;51.690;5.270;2023-02-04T06:38:05;103476.72;;;6.14;94.08
30614;BME280;17381;51.690;5.270;2023-02-04T06:40:37;103503.38;;;6.29;93.95
30614;BME280;17381;51.690;5.270;2023-02-04T06:43:13;103511.28;;;6.30;94.02
30614;BME280;17381;51.690;5.270;2023-02-04T06:45:48;103448.34;;;5.99;93.93
30614;BME280;17381;51.690;5.270;2023-02-04T06:48:21;103498.94;;;6.26;93.80
30614;BME280;17381;51.690;5.270;2023-02-04T06:50:55;103468.72;;;6.09;93.72
30614;BME280;17381;51.690;5.270;2023-02-04T06:53:42;103514.09;;;6.37;93.43
30614;BME280;17381;51.690;5.270;2023-02-04T06:56:29;103509.72;;;6.36;93.43
30614;BME280;17381;51.690;5.270;2023-02-04T06:59:09;103518.38;;;6.34;93.41
30614;BME280;17381;51.690;5.270;2023-02-04T07:01:35;103509.38;;;6.26;93.74
30614;BME280;17381;51.690;5.270;2023-02-04T07:04:12;103474.59;;;6.02;93.88
30614;BME280;17381;51.690;5.270;2023-02-04T07:06:50;103522.69;;;6.32;93.74
30614;BME280;17381;51.690;5.270;2023-02-04T07:09:22;103523.59;;;6.34;93.86
30614;BME280;17381;51.690;5.270;2023-02-04T07:11:57;103518.38;;;6.34;93.56
30614;BME280;17381;51.690;5.270;2023-02-04T07:14:51;103523.72;;;6.38;93.55
30614;BME280;17381;51.690;5.270;2023-02-04T07:17:35;103516.59;;;6.33;93.78
30614;BME280;17381;51.690;5.270;2023-02-04T07:20:26;103522.81;;;6.37;93.68
30614;BME280;17381;51.690;5.270;2023-02-04T07:23:07;103528.00;;;6.36;93.59
30614;BME280;17381;51.690;5.270;2023-02-04T07:25:42;103526.19;;;6.34;93.67
30614;BME280;17381;51.690;5.270;2023-02-04T07:28:29;103528.81;;;6.34;93.51
30614;BME280;17381;51.690;5.270;2023-02-04T07:30:55;103535.00;;;6.37;93.68
30614;BME280;17381;51.690;5.270;2023-02-04T07:33:29;103515.34;;;6.22;93.75
30614;BME280;17381;51.690;5.270;2023-02-04T07:36:04;103547.09;;;6.34;93.72
30614;BME280;17381;51.690;5.270;2023-02-04T07:38:40;103551.53;;;6.37;94.38
30614;BME280;17381;51.690;5.270;2023-02-04T07:41:22;103544.72;;;6.41;94.41
30614;BME280;17381;51.690;5.270;2023-02-04T07:44:02;103494.19;;;6.15;94.07
30614;BME280;17381;51.690;5.270;2023-02-04T07:46:45;103557.28;;;6.51;94.32
30614;BME280;17381;51.690;5.270;2023-02-04T07:49:19;103547.81;;;6.54;94.05
30614;BME280;17381;51.690;5.270;2023-02-04T07:51:57;103558.34;;;6.58;94.17
30614;BME280;17381;51.690;5.270;2023-02-04T07:54:33;103555.72;;;6.56;94.37
30614;BME280;17381;51.690;5.270;2023-02-04T07:57:02;103559.38;;;6.61;94.23
30614;BME280;17381;51.690;5.270;2023-02-04T07:59:29;103568.38;;;6.69;94.64
30614;BME280;17381;51.690;5.270;2023-02-04T08:01:55;103523.09;;;6.45;94.11
30614;BME280;17381;51.690;5.270;2023-02-04T08:04:23;103566.81;;;6.76;94.19
30614;BME280;17381;51.690;5.270;2023-02-04T08:07:09;103578.56;;;6.87;93.97
30614;BME280;17381;51.690;5.270;2023-02-04T08:09:48;103561.75;;;6.81;94.34
30614;BME280;17381;51.690;5.270;2023-02-04T08:12:27;103577.72;;;6.88;94.55
30614;BME280;17381;51.690;5.270;2023-02-04T08:14:59;103582.16;;;6.91;94.70
30614;BME280;17381;51.690;5.270;2023-02-04T08:17:55;103587.75;;;7.02;94.29
30614;BME280;17381;51.690;5.270;2023-02-04T08:20:57;103601.75;;;7.04;94.12
30614;BME280;17381;51.690;5.270;2023-02-04T08:23:24;103597.50;;;7.07;94.61
30614;BME280;17381;51.690;5.270;2023-02-04T08:25:53;103595.94;;;7.12;94.47
30614;BME280;17381;51.690;5.270;2023-02-04T08:28:33;103538.31;;;6.82;94.79
30614;BME280;17381;51.690;5.270;2023-02-04T08:31:18;103576.81;;;7.13;94.40
30614;BME280;17381;51.690;5.270;2023-02-04T08:34:11;103562.44;;;7.01;95.02
30614;BME280;17381;51.690;5.270;2023-02-04T08:36:49;103595.56;;;7.27;94.73
30614;BME280;17381;51.690;5.270;2023-02-04T08:39:35;103550.25;;;7.01;94.83
30614;BME280;17381;51.690;5.270;2023-02-04T08:42:52;103604.59;;;7.37;95.06
30614;BME280;17381;51.690;5.270;2023-02-04T08:46:02;103602.16;;;7.41;94.74
30614;BME280;17381;51.690;5.270;2023-02-04T08:48:45;103611.84;;;7.46;94.73
30614;BME280;17381;51.690;5.270;2023-02-04T08:51:42;103598.69;;;7.42;95.01
30614;BME280;17381;51.690;5.270;2023-02-04T08:54:23;103615.66;;;7.55;94.96
30614;BME280;17381;51.690;5.270;2023-02-04T08:57:18;103614.94;;;7.59;94.98
30614;BME280;17381;51.690;5.270;2023-02-04T09:00:21;103620.28;;;7.64;94.50
30614;BME280;17381;51.690;5.270;2023-02-04T09:03:19;103607.16;;;7.62;94.98
30614;BME280;17381;51.690;5.270;2023-02-04T09:05:49;103621.47;;;7.74;95.01
30614;BME280;17381;51.690;5.270;2023-02-04T09:08:23;103630.50;;;7.83;94.82
30614;BME280;17381;51.690;5.270;2023-02-04T09:11:24;103626.34;;;7.90;95.12
30614;BME280;17381;51.690;5.270;2023-02-04T09:14:18;103628.13;;;7.91;94.84
30614;BME280;17381;51.690;5.270;2023-02-04T09:17:15;103630.19;;;8.01;94.87
30614;BME280;17381;51.690;5.270;2023-02-04T09:20:22;103640.81;;;8.07;94.53
30614;BME280;17381;51.690;5.270;2023-02-04T09:23:20;103648.81;;;8.11;94.42
30614;BME280;17381;51.690;5.270;2023-02-04T09:26:05;103641.94;;;8.16;95.18
30614;BME280;17381;51.690;5.270;2023-02-04T09:29:01;103654.38;;;8.23;95.44
30614;BME280;17381;51.690;5.270;2023-02-04T09:31:56;103636.09;;;8.24;94.88
30614;BME280;17381;51.690;5.270;2023-02-04T09:34:30;103652.03;;;8.32;94.37
30614;BME280;17381;51.690;5.270;2023-02-04T09:37:08;103645.38;;;8.42;94.57
30614;BME280;17381;51.690;5.270;2023-02-04T09:40:02;103642.28;;;8.57;94.13
30614;BME280;17381;51.690;5.270;2023-02-04T09:42:55;103645.16;;;8.66;93.90
30614;BME280;17381;51.690;5.270;2023-02-04T09:45:44;103648.66;;;8.65;93.82
30614;BME280;17381;51.690;5.270;2023-02-04T09:48:37;103645.13;;;8.64;93.80
30614;BME280;17381;51.690;5.270;2023-02-04T09:51:35;103643.63;;;8.72;93.70
30614;BME280;17381;51.690;5.270;2023-02-04T09:54:25;103596.88;;;8.58;93.50
30614;BME280;17381;51.690;5.270;2023-02-04T09:57:31;103613.94;;;8.75;93.36
30614;BME280;17381;51.690;5.270;2023-02-04T10:00:30;103650.59;;;9.05;92.36
30614;BME280;17381;51.690;5.270;2023-02-04T10:03:25;103648.03;;;9.08;92.80
30614;BME280;17381;51.690;5.270;2023-02-04T10:06:30;103657.91;;;9.17;92.70
30614;BME280;17381;51.690;5.270;2023-02-04T10:09:08;103663.22;;;9.20;92.31
30614;BME280;17381;51.690;5.270;2023-02-04T10:12:01;103668.59;;;9.25;91.85
30614;BME280;17381;51.690;5.270;2023-02-04T12:59:11;103656.81;;;14.11;64.94
30614;BME280;17381;51.690;5.270;2023-02-04T14:38:42;103629.69;;;11.68;68.38
30614;BME280;17381;51.690;5.270;2023-02-04T14:41:43;103626.81;;;11.52;68.56
30614;BME280;17381;51.690;5.270;2023-02-04T14:48:55;103620.56;;;11.44;68.91
30614;BME280;17381;51.690;5.270;2023-02-04T16:15:26;103665.66;;;10.24;73.16
30614;BME280;17381;51.690;5.270;2023-02-04T17:38:20;103725.94;;;9.11;81.66
30614;BME280;17381;51.690;5.270;2023-02-04T17:41:08;103733.00;;;9.12;82.06
30614;BME280;17381;51.690;5.270;2023-02-04T17:43:50;103730.50;;;9.16;82.22
30614;BME280;17381;51.690;5.270;2023-02-04T17:47:15;103723.38;;;9.12;82.35
30614;BME280;17381;51.690;5.270;2023-02-04T17:50:01;103730.50;;;9.16;82.37
30614;BME280;17381;51.690;5.270;2023-02-04T17:52:57;103725.25;;;9.16;82.52
30614;BME280;17381;51.690;5.270;2023-02-04T17:56:05;103730.50;;;9.16;82.29
30614;BME280;17381;51.690;5.270;2023-02-04T18:05:47;103697.59;;;8.96;83.66
30614;BME280;17381;51.690;5.270;2023-02-04T19:01:46;103737.63;;;8.90;85.58
30614;BME280;17381;51.690;5.270;2023-02-04T19:16:45;103753.34;;;8.90;87.00
30614;BME280;17381;51.690;5.270;2023-02-04T19:24:33;103771.63;;;8.87;87.17
30614;BME280;17381;51.690;5.270;2023-02-04T21:33:17;103733.94;;;8.25;90.30
30614;BME280;17381;51.690;5.270;2023-02-04T21:39:58;103727.09;;;8.30;89.79
30614;BME280;17381;51.690;5.270;2023-02-04T22:06:48;103742.09;;;8.36;90.31
30614;BME280;17381;51.690;5.270;2023-02-04T22:14:19;103742.81;;;8.30;90.79
30614;BME280;17381;51.690;5.270;2023-02-04T22:17:02;103735.94;;;8.34;90.19
30614;BME280;17381;51.690;5.270;2023-02-04T22:19:31;103742.81;;;8.30;90.57
30614;BME280;17381;51.690;5.270;2023-02-04T22:22:00;103731.44;;;8.29;90.41
30614;BME280;17381;51.690;5.270;2023-02-04T22:24:43;103738.66;;;8.37;90.71
30614;BME280;17381;51.690;5.270;2023-02-04T22:27:28;103735.03;;;8.33;90.99
30614;BME280;17381;51.690;5.270;2023-02-04T22:30:24;103743.25;;;8.44;90.59
30614;BME280;17381;51.690;5.270;2023-02-04T22:33:00;103742.53;;;8.48;90.53
30614;BME280;17381;51.690;5.270;2023-02-04T22:35:39;103751.19;;;8.45;90.36
30614;BME280;17381;51.690;5.270;2023-02-04T22:38:10;103695.34;;;8.21;90.59
30614;BME280;17381;51.690;5.270;2023-02-04T22:40:42;103737.13;;;8.43;90.58
30614;BME280;17381;51.690;5.270;2023-02-04T22:43:16;103724.69;;;8.38;90.49
30614;BME280;17381;51.690;5.270;2023-02-04T22:45:53;103751.34;;;8.51;90.54
30614;BME280;17381;51.690;5.270;2023-02-04T22:48:31;103758.41;;;8.54;90.35
30614;BME280;17381;51.690;5.270;2023-02-04T22:51:07;103763.56;;;8.49;90.52
30614;BME280;17381;51.690;5.270;2023-02-04T22:53:36;103747.69;;;8.45;90.49
30614;BME280;17381;51.690;5.270;2023-02-04T22:56:08;103736.19;;;8.41;90.27
30614;BME280;17381;51.690;5.270;2023-02-04T22:58:40;103751.47;;;8.55;90.51
30614;BME280;17381;51.690;5.270;2023-02-04T23:01:09;103739.03;;;8.49;90.69
30614;BME280;17381;51.690;5.270;2023-02-04T23:03:43;103747.81;;;8.49;90.73
30614;BME280;17381;51.690;5.270;2023-02-04T23:06:15;103741.56;;;8.46;90.46
30614;BME280;17381;51.690;5.270;2023-02-04T23:08:56;103749.50;;;8.47;90.69
30614;BME280;17381;51.690;5.270;2023-02-04T23:11:25;103744.25;;;8.47;90.66
30614;BME280;17381;51.690;5.270;2023-02-04T23:14:01;103697.88;;;8.16;90.53
30614;BME280;17381;51.690;5.270;2023-02-04T23:16:30;103732.75;;;8.42;91.35
30614;BME280;17381;51.690;5.270;2023-02-04T23:18:56;103716.78;;;8.36;90.68
30614;BME280;17381;51.690;5.270;2023-02-04T23:21:26;103729.19;;;8.40;90.91
30614;BME280;17381;51.690;5.270;2023-02-04T23:23:52;103734.44;;;8.40;91.07
30614;BME280;17381;51.690;5.270;2023-02-04T23:26:49;103730.94;;;8.41;91.53
30614;BME280;17381;51.690;5.270;2023-02-04T23:29:20;103724.97;;;8.45;91.11
30614;BME280;17381;51.690;5.270;2023-02-04T23:31:52;103723.19;;;8.44;90.61
30614;BME280;17381;51.690;5.270;2023-02-04T23:34:17;103654.84;;;8.09;90.70
30614;BME280;17381;51.690;5.270;2023-02-04T23:36:58;103669.84;;;8.14;90.81
30614;BME280;17381;51.690;5.270;2023-02-04T23:39:41;103723.94;;;8.40;90.54
30614;BME280;17381;51.690;5.270;2023-02-04T23:42:30;103719.66;;;8.44;90.86
30614;BME280;17381;51.690;5.270;2023-02-04T23:45:07;103708.38;;;8.46;91.17
30614;BME280;17381;51.690;5.270;2023-02-04T23:47:42;103701.28;;;8.42;91.68
30614;BME280;17381;51.690;5.270;2023-02-04T23:50:11;103699.63;;;8.44;91.23
30614;BME280;17381;51.690;5.270;2023-02-04T23:52:37;103676.56;;;8.34;90.87
30614;BME280;17381;51.690;5.270;2023-02-04T23:55:13;103671.03;;;8.25;90.95
30614;BME280;17381;51.690;5.270;2023-02-04T23:57:42;103691.44;;;8.35;91.18
